<?xml version="1.0" encoding="UTF-8" standalone="no" ?>
<gpx xmlns="http://www.topografix.com/GPX/1/1" xmlns:xsi="http://www.w3.org/2001/XMLSchema-instance" xsi:schemaLocation="http://www.topografix.com/GPX/1/1 http://www.topografix.com/GPX/1/1/gpx.xsd" version="1.1" creator="VisuGPX - https://www.visugpx.com">
  <metadata>
    <name>14361180-la gde borne</name>
    <desc><![CDATA[Circuit non balisé à faire avec la carte en main ou GPS]]></desc>
  </metadata>
  <trk>
    <name><![CDATA[14361180-la gde borne]]></name>
    <trkseg>
      <trkpt lat="46.02455" lon="3.81514">
        <ele>1029</ele>
        <time>2022-03-06T05:33:02Z</time>
      </trkpt>
      <trkpt lat="46.02672" lon="3.81393">
        <ele>1038</ele>
        <time>2022-03-06T05:38:13Z</time>
      </trkpt>
      <trkpt lat="46.0281" lon="3.81353">
        <ele>1043</ele>
        <time>2022-03-06T05:41:20Z</time>
      </trkpt>
      <trkpt lat="46.02818" lon="3.81391">
        <ele>1043</ele>
        <time>2022-03-06T05:41:57Z</time>
      </trkpt>
      <trkpt lat="46.02844" lon="3.81392">
        <ele>1042</ele>
        <time>2022-03-06T05:42:32Z</time>
      </trkpt>
      <trkpt lat="46.02991" lon="3.81403">
        <ele>1033</ele>
        <time>2022-03-06T05:45:48Z</time>
      </trkpt>
      <trkpt lat="46.03069" lon="3.81414">
        <ele>1031</ele>
        <time>2022-03-06T05:47:33Z</time>
      </trkpt>
      <trkpt lat="46.03119" lon="3.81444">
        <ele>1025</ele>
        <time>2022-03-06T05:48:45Z</time>
      </trkpt>
      <trkpt lat="46.03227" lon="3.81464">
        <ele>1011</ele>
        <time>2022-03-06T05:51:10Z</time>
      </trkpt>
      <trkpt lat="46.03301" lon="3.81418">
        <ele>1009</ele>
        <time>2022-03-06T05:52:58Z</time>
      </trkpt>
      <trkpt lat="46.03384" lon="3.81439">
        <ele>1004</ele>
        <time>2022-03-06T05:54:50Z</time>
      </trkpt>
      <trkpt lat="46.03441" lon="3.81438">
        <ele>1006</ele>
        <time>2022-03-06T05:56:07Z</time>
      </trkpt>
      <trkpt lat="46.0346" lon="3.81468">
        <ele>1007</ele>
        <time>2022-03-06T05:56:44Z</time>
      </trkpt>
      <trkpt lat="46.03496" lon="3.81481">
        <ele>1010</ele>
        <time>2022-03-06T05:57:34Z</time>
      </trkpt>
      <trkpt lat="46.03565" lon="3.8149">
        <ele>1012</ele>
        <time>2022-03-06T05:59:06Z</time>
      </trkpt>
      <trkpt lat="46.03626" lon="3.81537">
        <ele>1019</ele>
        <time>2022-03-06T06:00:38Z</time>
      </trkpt>
      <trkpt lat="46.03716" lon="3.8151">
        <ele>1014</ele>
        <time>2022-03-06T06:02:41Z</time>
      </trkpt>
      <trkpt lat="46.03758" lon="3.81534">
        <ele>1014</ele>
        <time>2022-03-06T06:03:41Z</time>
      </trkpt>
      <trkpt lat="46.03786" lon="3.81535">
        <ele>1012</ele>
        <time>2022-03-06T06:04:19Z</time>
      </trkpt>
      <trkpt lat="46.03861" lon="3.81506">
        <ele>1009</ele>
        <time>2022-03-06T06:06:02Z</time>
      </trkpt>
      <trkpt lat="46.03874" lon="3.81479">
        <ele>1008</ele>
        <time>2022-03-06T06:06:33Z</time>
      </trkpt>
      <trkpt lat="46.03896" lon="3.81436">
        <ele>1007</ele>
        <time>2022-03-06T06:07:22Z</time>
      </trkpt>
      <trkpt lat="46.03924" lon="3.81397">
        <ele>1004</ele>
        <time>2022-03-06T06:08:14Z</time>
      </trkpt>
      <trkpt lat="46.03972" lon="3.8139">
        <ele>1003</ele>
        <time>2022-03-06T06:09:19Z</time>
      </trkpt>
      <trkpt lat="46.0398" lon="3.81403">
        <ele>1003</ele>
        <time>2022-03-06T06:09:35Z</time>
      </trkpt>
      <trkpt lat="46.04009" lon="3.81436">
        <ele>1005</ele>
        <time>2022-03-06T06:10:24Z</time>
      </trkpt>
      <trkpt lat="46.04077" lon="3.81479">
        <ele>1010</ele>
        <time>2022-03-06T06:12:03Z</time>
      </trkpt>
      <trkpt lat="46.04143" lon="3.81531">
        <ele>1007</ele>
        <time>2022-03-06T06:13:44Z</time>
      </trkpt>
      <trkpt lat="46.0422" lon="3.81616">
        <ele>1002</ele>
        <time>2022-03-06T06:15:53Z</time>
      </trkpt>
      <trkpt lat="46.04292" lon="3.81651">
        <ele>1000</ele>
        <time>2022-03-06T06:17:34Z</time>
      </trkpt>
      <trkpt lat="46.04351" lon="3.8162">
        <ele>999</ele>
        <time>2022-03-06T06:18:58Z</time>
      </trkpt>
      <trkpt lat="46.04406" lon="3.81578">
        <ele>1000</ele>
        <time>2022-03-06T06:20:21Z</time>
      </trkpt>
      <trkpt lat="46.04444" lon="3.81554">
        <ele>997</ele>
        <time>2022-03-06T06:21:17Z</time>
      </trkpt>
      <trkpt lat="46.04469" lon="3.81518">
        <ele>993</ele>
        <time>2022-03-06T06:22:04Z</time>
      </trkpt>
      <trkpt lat="46.04467" lon="3.81382">
        <ele>990</ele>
        <time>2022-03-06T06:24:10Z</time>
      </trkpt>
      <trkpt lat="46.0448" lon="3.81288">
        <ele>990</ele>
        <time>2022-03-06T06:25:39Z</time>
      </trkpt>
      <trkpt lat="46.04598" lon="3.81195">
        <ele>998</ele>
        <time>2022-03-06T06:28:38Z</time>
      </trkpt>
      <trkpt lat="46.04694" lon="3.81104">
        <ele>1010</ele>
        <time>2022-03-06T06:31:12Z</time>
      </trkpt>
      <trkpt lat="46.04721" lon="3.81071">
        <ele>1013</ele>
        <time>2022-03-06T06:31:59Z</time>
      </trkpt>
      <trkpt lat="46.04792" lon="3.81045">
        <ele>1017</ele>
        <time>2022-03-06T06:33:37Z</time>
      </trkpt>
      <trkpt lat="46.04794" lon="3.81007">
        <ele>1020</ele>
        <time>2022-03-06T06:34:12Z</time>
      </trkpt>
      <trkpt lat="46.04827" lon="3.80983">
        <ele>1021</ele>
        <time>2022-03-06T06:35:01Z</time>
      </trkpt>
      <trkpt lat="46.04841" lon="3.81003">
        <ele>1020</ele>
        <time>2022-03-06T06:35:27Z</time>
      </trkpt>
      <trkpt lat="46.04932" lon="3.80958">
        <ele>1018</ele>
        <time>2022-03-06T06:37:36Z</time>
      </trkpt>
      <trkpt lat="46.04959" lon="3.80873">
        <ele>1021</ele>
        <time>2022-03-06T06:39:02Z</time>
      </trkpt>
      <trkpt lat="46.05094" lon="3.80757">
        <ele>1013</ele>
        <time>2022-03-06T06:42:32Z</time>
      </trkpt>
      <trkpt lat="46.05222" lon="3.80579">
        <ele>1013</ele>
        <time>2022-03-06T06:46:30Z</time>
      </trkpt>
      <trkpt lat="46.05274" lon="3.80537">
        <ele>1011</ele>
        <time>2022-03-06T06:47:49Z</time>
      </trkpt>
      <trkpt lat="46.05307" lon="3.80517">
        <ele>1011</ele>
        <time>2022-03-06T06:48:37Z</time>
      </trkpt>
      <trkpt lat="46.05395" lon="3.80657">
        <ele>1012</ele>
        <time>2022-03-06T06:51:32Z</time>
      </trkpt>
      <trkpt lat="46.05452" lon="3.807">
        <ele>1011</ele>
        <time>2022-03-06T06:52:58Z</time>
      </trkpt>
      <trkpt lat="46.05539" lon="3.80715">
        <ele>1011</ele>
        <time>2022-03-06T06:54:55Z</time>
      </trkpt>
      <trkpt lat="46.05557" lon="3.80719">
        <ele>1011</ele>
        <time>2022-03-06T06:55:19Z</time>
      </trkpt>
      <trkpt lat="46.05592" lon="3.80669">
        <ele>1015</ele>
        <time>2022-03-06T06:56:25Z</time>
      </trkpt>
      <trkpt lat="46.0568" lon="3.80599">
        <ele>1014</ele>
        <time>2022-03-06T06:58:39Z</time>
      </trkpt>
      <trkpt lat="46.05703" lon="3.80555">
        <ele>1014</ele>
        <time>2022-03-06T06:59:30Z</time>
      </trkpt>
      <trkpt lat="46.05609" lon="3.8043">
        <ele>1014</ele>
        <time>2022-03-06T07:02:21Z</time>
      </trkpt>
      <trkpt lat="46.05514" lon="3.80393">
        <ele>1013</ele>
        <time>2022-03-06T07:04:32Z</time>
      </trkpt>
      <trkpt lat="46.05453" lon="3.80411">
        <ele>1012</ele>
        <time>2022-03-06T07:05:55Z</time>
      </trkpt>
      <trkpt lat="46.05409" lon="3.80415">
        <ele>1010</ele>
        <time>2022-03-06T07:06:54Z</time>
      </trkpt>
      <trkpt lat="46.05355" lon="3.80473">
        <ele>1011</ele>
        <time>2022-03-06T07:08:24Z</time>
      </trkpt>
      <trkpt lat="46.05315" lon="3.80496">
        <ele>1011</ele>
        <time>2022-03-06T07:09:21Z</time>
      </trkpt>
      <trkpt lat="46.05285" lon="3.80512">
        <ele>1011</ele>
        <time>2022-03-06T07:10:04Z</time>
      </trkpt>
      <trkpt lat="46.05277" lon="3.80458">
        <ele>1012</ele>
        <time>2022-03-06T07:10:55Z</time>
      </trkpt>
      <trkpt lat="46.0525" lon="3.80421">
        <ele>1013</ele>
        <time>2022-03-06T07:11:45Z</time>
      </trkpt>
      <trkpt lat="46.05228" lon="3.80336">
        <ele>1017</ele>
        <time>2022-03-06T07:13:09Z</time>
      </trkpt>
      <trkpt lat="46.05224" lon="3.80229">
        <ele>1022</ele>
        <time>2022-03-06T07:14:48Z</time>
      </trkpt>
      <trkpt lat="46.05173" lon="3.80048">
        <ele>1030</ele>
        <time>2022-03-06T07:17:49Z</time>
      </trkpt>
      <trkpt lat="46.05103" lon="3.79877">
        <ele>1029</ele>
        <time>2022-03-06T07:20:53Z</time>
      </trkpt>
      <trkpt lat="46.051" lon="3.79805">
        <ele>1028</ele>
        <time>2022-03-06T07:21:59Z</time>
      </trkpt>
      <trkpt lat="46.05088" lon="3.79743">
        <ele>1030</ele>
        <time>2022-03-06T07:22:59Z</time>
      </trkpt>
      <trkpt lat="46.05029" lon="3.79611">
        <ele>1030</ele>
        <time>2022-03-06T07:25:25Z</time>
      </trkpt>
      <trkpt lat="46.04993" lon="3.79582">
        <ele>1033</ele>
        <time>2022-03-06T07:26:20Z</time>
      </trkpt>
      <trkpt lat="46.04972" lon="3.79606">
        <ele>1033</ele>
        <time>2022-03-06T07:26:55Z</time>
      </trkpt>
      <trkpt lat="46.04861" lon="3.79843">
        <ele>1037</ele>
        <time>2022-03-06T07:31:20Z</time>
      </trkpt>
      <trkpt lat="46.04846" lon="3.79989">
        <ele>1040</ele>
        <time>2022-03-06T07:33:37Z</time>
      </trkpt>
      <trkpt lat="46.0482" lon="3.80041">
        <ele>1039</ele>
        <time>2022-03-06T07:34:36Z</time>
      </trkpt>
      <trkpt lat="46.04807" lon="3.80183">
        <ele>1035</ele>
        <time>2022-03-06T07:36:49Z</time>
      </trkpt>
      <trkpt lat="46.04753" lon="3.803">
        <ele>1028</ele>
        <time>2022-03-06T07:38:59Z</time>
      </trkpt>
      <trkpt lat="46.04701" lon="3.80335">
        <ele>1023</ele>
        <time>2022-03-06T07:40:16Z</time>
      </trkpt>
      <trkpt lat="46.04636" lon="3.80435">
        <ele>1020</ele>
        <time>2022-03-06T07:42:22Z</time>
      </trkpt>
      <trkpt lat="46.04618" lon="3.80468">
        <ele>1016</ele>
        <time>2022-03-06T07:43:01Z</time>
      </trkpt>
      <trkpt lat="46.04608" lon="3.80553">
        <ele>1011</ele>
        <time>2022-03-06T07:44:21Z</time>
      </trkpt>
      <trkpt lat="46.04701" lon="3.80671">
        <ele>1016</ele>
        <time>2022-03-06T07:47:07Z</time>
      </trkpt>
      <trkpt lat="46.04614" lon="3.80652">
        <ele>1009</ele>
        <time>2022-03-06T07:49:04Z</time>
      </trkpt>
      <trkpt lat="46.04609" lon="3.80663">
        <ele>1008</ele>
        <time>2022-03-06T07:49:16Z</time>
      </trkpt>
      <trkpt lat="46.0454" lon="3.80695">
        <ele>1005</ele>
        <time>2022-03-06T07:50:53Z</time>
      </trkpt>
      <trkpt lat="46.0448" lon="3.80767">
        <ele>1002</ele>
        <time>2022-03-06T07:52:37Z</time>
      </trkpt>
      <trkpt lat="46.04339" lon="3.80883">
        <ele>994</ele>
        <time>2022-03-06T07:56:14Z</time>
      </trkpt>
      <trkpt lat="46.04205" lon="3.80925">
        <ele>988</ele>
        <time>2022-03-06T07:59:17Z</time>
      </trkpt>
      <trkpt lat="46.04201" lon="3.80986">
        <ele>992</ele>
        <time>2022-03-06T08:00:14Z</time>
      </trkpt>
      <trkpt lat="46.04029" lon="3.81197">
        <ele>992</ele>
        <time>2022-03-06T08:05:15Z</time>
      </trkpt>
      <trkpt lat="46.03973" lon="3.81354">
        <ele>1000</ele>
        <time>2022-03-06T08:07:59Z</time>
      </trkpt>
      <trkpt lat="46.03957" lon="3.81351">
        <ele>999</ele>
        <time>2022-03-06T08:08:20Z</time>
      </trkpt>
      <trkpt lat="46.03801" lon="3.8133">
        <ele>998</ele>
        <time>2022-03-06T08:11:49Z</time>
      </trkpt>
      <trkpt lat="46.03758" lon="3.81319">
        <ele>997</ele>
        <time>2022-03-06T08:12:47Z</time>
      </trkpt>
      <trkpt lat="46.03712" lon="3.81354">
        <ele>1000</ele>
        <time>2022-03-06T08:13:57Z</time>
      </trkpt>
      <trkpt lat="46.03675" lon="3.81368">
        <ele>1002</ele>
        <time>2022-03-06T08:14:48Z</time>
      </trkpt>
      <trkpt lat="46.03615" lon="3.81407">
        <ele>1005</ele>
        <time>2022-03-06T08:16:16Z</time>
      </trkpt>
      <trkpt lat="46.03538" lon="3.81388">
        <ele>1005</ele>
        <time>2022-03-06T08:18:00Z</time>
      </trkpt>
      <trkpt lat="46.03466" lon="3.81411">
        <ele>1006</ele>
        <time>2022-03-06T08:19:38Z</time>
      </trkpt>
      <trkpt lat="46.0346" lon="3.8119">
        <ele>1013</ele>
        <time>2022-03-06T08:23:03Z</time>
      </trkpt>
      <trkpt lat="46.03393" lon="3.81038">
        <ele>1012</ele>
        <time>2022-03-06T08:25:50Z</time>
      </trkpt>
      <trkpt lat="46.03395" lon="3.8084">
        <ele>1005</ele>
        <time>2022-03-06T08:28:54Z</time>
      </trkpt>
      <trkpt lat="46.03331" lon="3.80675">
        <ele>1012</ele>
        <time>2022-03-06T08:31:49Z</time>
      </trkpt>
      <trkpt lat="46.0315" lon="3.80476">
        <ele>1025</ele>
        <time>2022-03-06T08:36:53Z</time>
      </trkpt>
      <trkpt lat="46.03012" lon="3.80579">
        <ele>1027</ele>
        <time>2022-03-06T08:40:20Z</time>
      </trkpt>
      <trkpt lat="46.02884" lon="3.80718">
        <ele>1022</ele>
        <time>2022-03-06T08:43:54Z</time>
      </trkpt>
      <trkpt lat="46.02812" lon="3.80866">
        <ele>1022</ele>
        <time>2022-03-06T08:46:41Z</time>
      </trkpt>
      <trkpt lat="46.02809" lon="3.81126">
        <ele>1038</ele>
        <time>2022-03-06T08:50:42Z</time>
      </trkpt>
      <trkpt lat="46.02844" lon="3.81278">
        <ele>1041</ele>
        <time>2022-03-06T08:53:11Z</time>
      </trkpt>
      <trkpt lat="46.02807" lon="3.81324">
        <ele>1042</ele>
        <time>2022-03-06T08:54:16Z</time>
      </trkpt>
      <trkpt lat="46.02736" lon="3.81327">
        <ele>1040</ele>
        <time>2022-03-06T08:55:51Z</time>
      </trkpt>
      <trkpt lat="46.02444" lon="3.81488">
        <ele>1032</ele>
        <time>2022-03-06T09:02:48Z</time>
      </trkpt>
    </trkseg>
  </trk>
</gpx>